Time;durP1;ratioP1;P1;durP2;ratioP2;P2;SDS_P1;SDS_P2;PMS_P1;PMS_P2;Temp;Humidity;BMP_temperature;BMP_pressure;BME280_temperature;BME280_humidity;BME280_pressure;Samples;Min_cycle;Max_cycle;Signal;HPM_P1;HPM_P2
2023/12/21 00:02:54;;;;;;;;;;;;;;;5.86;60.58;100185.59;5462140;32;34762;-75
2023/12/21 00:05:56;;;;;;;;;;;;;;;6.09;60.04;100177.25;5461675;32;34547;-71
2023/12/21 00:08:58;;;;;;;;;;;;;;;6.59;58.70;100177.75;5459884;32;34319;-75
2023/12/21 00:12:00;;;;;;;;;;;;;;;7.04;56.85;100175.63;5464282;32;35364;-69
2023/12/21 00:15:03;;;;;;;;;;;;;;;7.13;56.83;100174.50;5459413;32;34167;-69
2023/12/21 00:18:05;;;;;;;;;;;;;;;6.21;58.32;100165.66;5463646;32;35412;-74
2023/12/21 00:21:07;;;;;;;;;;;;;;;6.36;58.16;100165.25;5459138;32;35344;-75
2023/12/21 00:24:09;;;;;;;;;;;;;;;6.42;57.71;100165.13;5461322;32;35347;-76
2023/12/21 00:27:12;;;;;;;;;;;;;;;6.98;55.53;100162.75;5446966;32;35131;-69
2023/12/21 00:30:14;;;;;;;;;;;;;;;6.84;56.37;100164.88;5458664;32;35070;-74
2023/12/21 00:33:16;;;;;;;;;;;;;;;6.94;56.26;100161.09;5463743;32;34598;-76
2023/12/21 00:36:20;;;;;;;;;;;;;;;7.70;53.95;100160.62;5459520;32;35044;-70
2023/12/21 00:39:22;;;;;;;;;;;;;;;7.64;53.95;100159.97;5434518;32;34756;-72
2023/12/21 00:42:28;;;;;;;;;;;;;;;7.39;54.01;100152.00;5460270;32;35400;-75
2023/12/21 00:45:31;;;;;;;;;;;;;;;7.25;54.28;100160.25;5446044;32;35768;-70
2023/12/21 00:48:33;;;;;;;;;;;;;;;6.97;54.81;100152.34;5445933;32;34333;-75
2023/12/21 00:51:35;;;;;;;;;;;;;;;6.92;55.42;100149.84;5457159;32;35500;-74
2023/12/21 00:54:57;;;;;;;;;;;;;;;6.57;55.72;100145.59;5462603;32;35063;-74
2023/12/21 00:58:26;;;;;;;;;;;;;;;6.65;55.24;100129.72;5440960;32;35180;-75
2023/12/21 01:01:48;;;;;;;;;;;;;;;6.39;56.66;100128.66;5457179;32;34549;-75
2023/12/21 01:04:55;;;;;;;;;;;;;;;6.33;56.86;100130.56;5449096;32;37495;-68
2023/12/21 01:08:01;;;;;;;;;;;;;;;6.42;56.17;100138.16;5458598;32;34160;-70
2023/12/21 01:11:03;;;;;;;;;;;;;;;6.19;56.88;100133.53;5460500;32;35624;-69
2023/12/21 01:14:05;;;;;;;;;;;;;;;6.58;56.29;100133.41;5458945;32;34562;-70
2023/12/21 01:17:07;;;;;;;;;;;;;;;6.88;55.56;100135.16;5462204;32;35175;-74
2023/12/21 01:20:09;;;;;;;;;;;;;;;6.46;55.73;100131.97;5446724;32;34804;-71
2023/12/21 01:23:12;;;;;;;;;;;;;;;6.39;56.51;100133.03;5444144;32;34982;-74
2023/12/21 01:26:14;;;;;;;;;;;;;;;6.43;56.29;100124.19;5463516;32;34686;-76
2023/12/21 01:29:16;;;;;;;;;;;;;;;6.26;56.55;100122.03;5459139;32;34945;-75
2023/12/21 01:32:18;;;;;;;;;;;;;;;6.17;56.92;100119.66;5439487;32;35230;-74
2023/12/21 01:35:20;;;;;;;;;;;;;;;6.03;57.38;100114.78;5460696;32;35415;-69
2023/12/21 01:38:23;;;;;;;;;;;;;;;6.85;55.77;100101.28;5464032;32;35684;-74
2023/12/21 01:41:25;;;;;;;;;;;;;;;6.42;56.74;100078.97;5463983;32;34803;-71
2023/12/21 01:44:28;;;;;;;;;;;;;;;6.89;55.59;100088.97;5461911;32;33624;-69
2023/12/21 01:47:32;;;;;;;;;;;;;;;7.68;53.60;100081.34;5465787;32;35304;-69
2023/12/21 01:50:35;;;;;;;;;;;;;;;7.17;54.52;100082.06;5443871;32;34853;-69
2023/12/21 01:53:37;;;;;;;;;;;;;;;6.87;55.16;100081.19;5464791;32;35412;-75
2023/12/21 01:56:39;;;;;;;;;;;;;;;7.90;53.35;100084.13;5446569;32;34725;-74
2023/12/21 01:59:42;;;;;;;;;;;;;;;7.95;52.36;100076.97;5462419;32;34335;-75
2023/12/21 02:02:44;;;;;;;;;;;;;;;8.03;52.81;100077.56;5449798;32;34591;-69
2023/12/21 02:05:46;;;;;;;;;;;;;;;7.39;54.06;100069.19;5446153;32;35424;-69
2023/12/21 02:08:49;;;;;;;;;;;;;;;6.81;55.49;100077.91;5465103;32;34344;-74
2023/12/21 02:11:51;;;;;;;;;;;;;;;6.91;55.27;100072.38;5461320;32;35813;-69
2023/12/21 02:14:53;;;;;;;;;;;;;;;7.03;54.40;100076.41;5465101;32;34119;-68
2023/12/21 02:17:59;;;;;;;;;;;;;;;7.33;53.95;100069.38;5458062;32;35136;-69
2023/12/21 02:21:01;;;;;;;;;;;;;;;6.97;54.52;100058.28;5444594;32;35037;-75
2023/12/21 02:24:11;;;;;;;;;;;;;;;7.05;54.01;100048.44;5450865;32;35040;-76
2023/12/21 02:27:13;;;;;;;;;;;;;;;7.41;53.03;100050.84;5433521;32;34840;-75
2023/12/21 02:30:16;;;;;;;;;;;;;;;7.43;53.42;100057.72;5409738;32;834181;-69
2023/12/21 02:33:18;;;;;;;;;;;;;;;7.51;53.21;100037.41;5460729;32;34743;-75
2023/12/21 02:36:21;;;;;;;;;;;;;;;7.02;54.53;100049.41;5445836;32;36293;-70
2023/12/21 02:39:23;;;;;;;;;;;;;;;7.04;54.54;100033.69;5457441;32;36307;-69
2023/12/21 02:42:25;;;;;;;;;;;;;;;7.83;52.25;100019.81;5460678;32;34533;-75
2023/12/21 02:45:28;;;;;;;;;;;;;;;7.91;51.75;100023.03;5464842;32;35353;-69
2023/12/21 02:48:30;;;;;;;;;;;;;;;7.77;52.22;100031.34;5460232;32;34931;-74
2023/12/21 02:51:33;;;;;;;;;;;;;;;8.12;51.00;100027.53;5462314;32;34954;-69
2023/12/21 02:54:35;;;;;;;;;;;;;;;7.60;52.26;100017.97;5460497;32;35716;-74
2023/12/21 02:57:37;;;;;;;;;;;;;;;7.85;51.93;100015.38;5449934;32;34556;-70
2023/12/21 03:00:39;;;;;;;;;;;;;;;7.36;52.94;100016.16;5461139;32;34349;-73
2023/12/21 03:03:41;;;;;;;;;;;;;;;7.71;52.55;100015.84;5446399;32;34323;-73
2023/12/21 03:06:44;;;;;;;;;;;;;;;7.83;52.33;100007.59;5466015;32;34399;-68
2023/12/21 03:09:46;;;;;;;;;;;;;;;8.04;51.83;99995.50;5433350;32;35849;-75
2023/12/21 03:12:52;;;;;;;;;;;;;;;8.14;51.31;100004.78;5450689;32;34915;-75
2023/12/21 03:16:05;;;;;;;;;;;;;;;8.44;50.70;100002.00;5442818;32;34379;-75
2023/12/21 03:19:07;;;;;;;;;;;;;;;8.31;50.55;100009.41;5463667;32;35354;-68
2023/12/21 03:22:09;;;;;;;;;;;;;;;8.85;49.38;100004.84;5449376;32;35578;-69
2023/12/21 03:25:11;;;;;;;;;;;;;;;8.97;49.23;100006.16;5460431;32;34821;-75
2023/12/21 03:28:14;;;;;;;;;;;;;;;9.06;48.99;99993.53;5464209;32;34799;-75
2023/12/21 03:31:17;;;;;;;;;;;;;;;9.35;48.29;99991.53;5459949;32;34573;-73
2023/12/21 03:34:19;;;;;;;;;;;;;;;9.47;47.90;99997.12;5447270;32;34503;-75
2023/12/21 03:37:27;;;;;;;;;;;;;;;8.90;48.67;99992.44;5459784;32;34491;-69
2023/12/21 03:40:29;;;;;;;;;;;;;;;7.73;51.37;99997.47;5460573;32;34546;-74
2023/12/21 03:43:31;;;;;;;;;;;;;;;7.97;51.26;100007.09;5465116;32;34965;-73
2023/12/21 03:46:33;;;;;;;;;;;;;;;7.24;52.08;100005.16;5459542;32;34461;-75
2023/12/21 03:49:36;;;;;;;;;;;;;;;8.25;50.67;100000.94;5462555;32;34664;-75
2023/12/21 03:52:38;;;;;;;;;;;;;;;7.25;52.73;99991.19;5454861;32;34718;-69
2023/12/21 03:55:40;;;;;;;;;;;;;;;7.83;51.32;99983.19;5463087;32;34922;-70
2023/12/21 03:58:42;;;;;;;;;;;;;;;8.47;49.85;99973.06;5445384;32;35110;-71
2023/12/21 04:01:44;;;;;;;;;;;;;;;8.35;49.37;99977.00;5460320;32;35063;-75
2023/12/21 04:04:47;;;;;;;;;;;;;;;7.85;50.14;99976.13;5445650;32;34442;-69
2023/12/21 04:07:52;;;;;;;;;;;;;;;7.38;51.72;99990.81;5459392;32;34083;-70
2023/12/21 04:10:57;;;;;;;;;;;;;;;7.13;52.42;99982.88;5463932;32;35314;-75
2023/12/21 04:14:00;;;;;;;;;;;;;;;8.26;49.66;99961.59;5459747;32;35499;-74
2023/12/21 04:17:03;;;;;;;;;;;;;;;7.91;50.69;99968.06;5464513;32;34706;-69
2023/12/21 04:20:07;;;;;;;;;;;;;;;7.51;52.03;99969.44;5444898;32;35039;-74
2023/12/21 04:23:09;;;;;;;;;;;;;;;7.55;52.06;99971.03;5458679;32;35629;-70
2023/12/21 04:26:20;;;;;;;;;;;;;;;7.06;53.53;99971.75;5463692;32;34945;-74
2023/12/21 04:29:23;;;;;;;;;;;;;;;7.52;52.25;99960.66;5444320;32;35392;-69
2023/12/21 04:32:26;;;;;;;;;;;;;;;7.57;52.77;99958.75;5462558;32;34821;-75
2023/12/21 04:35:28;;;;;;;;;;;;;;;8.08;51.09;99959.62;5458970;32;34840;-69
2023/12/21 04:38:30;;;;;;;;;;;;;;;7.65;52.63;99960.25;5445075;32;35639;-70
2023/12/21 04:41:33;;;;;;;;;;;;;;;7.99;51.87;99959.97;5447473;32;34286;-68
2023/12/21 04:44:35;;;;;;;;;;;;;;;7.54;52.78;99947.56;5459682;32;34918;-75
2023/12/21 04:47:38;;;;;;;;;;;;;;;7.34;53.20;99948.19;5462032;32;34616;-70
2023/12/21 04:50:41;;;;;;;;;;;;;;;7.67;53.75;99940.16;5456197;32;34728;-69
2023/12/21 04:53:43;;;;;;;;;;;;;;;8.53;51.01;99935.31;5462254;32;34905;-69
2023/12/21 04:56:46;;;;;;;;;;;;;;;8.56;50.85;99933.44;5444032;32;34178;-69
2023/12/21 04:59:48;;;;;;;;;;;;;;;8.51;50.64;99924.91;5460357;32;34419;-74
2023/12/21 05:03:03;;;;;;;;;;;;;;;7.85;52.56;99929.03;5461826;32;36010;-70
2023/12/21 05:06:19;;;;;;;;;;;;;;;7.47;53.78;99927.72;5448270;32;34870;-74
2023/12/21 05:09:30;;;;;;;;;;;;;;;7.15;54.87;99928.78;5452153;32;33618;-69
2023/12/21 05:12:41;;;;;;;;;;;;;;;6.86;56.01;99922.75;5437639;32;33539;-73
2023/12/21 05:15:57;;;;;;;;;;;;;;;6.52;56.75;99912.50;5461039;32;36943;-69
2023/12/21 05:19:17;;;;;;;;;;;;;;;6.42;57.22;99897.97;5424539;32;33343;-75
2023/12/21 05:22:43;;;;;;;;;;;;;;;6.18;58.30;99900.44;5416699;32;34363;-73
2023/12/21 05:26:00;;;;;;;;;;;;;;;6.56;57.25;99895.81;5411204;32;34607;-69
2023/12/21 05:29:28;;;;;;;;;;;;;;;6.57;57.14;99894.03;5421831;32;35376;-69
2023/12/21 05:32:39;;;;;;;;;;;;;;;6.40;57.59;99900.66;5407803;32;36896;-69
2023/12/21 05:36:18;;;;;;;;;;;;;;;6.58;57.08;99894.03;5411965;32;34846;-75
2023/12/21 05:39:59;;;;;;;;;;;;;;;6.56;56.88;99892.34;5345662;32;35264;-69
2023/12/21 05:43:27;;;;;;;;;;;;;;;6.58;56.55;99893.16;5345026;32;34296;-73
2023/12/21 05:47:01;;;;;;;;;;;;;;;6.57;56.26;99888.81;5349061;32;33445;-74
2023/12/21 05:50:22;;;;;;;;;;;;;;;6.64;55.76;99892.97;5341095;32;36496;-75
2023/12/21 05:53:35;;;;;;;;;;;;;;;6.55;56.23;99888.03;5344025;32;34663;-69
2023/12/21 05:56:37;;;;;;;;;;;;;;;5.98;57.80;99889.69;5349746;32;35038;-69
2023/12/21 05:59:39;;;;;;;;;;;;;;;5.77;58.96;99878.06;5345768;32;34606;-69
2023/12/21 06:02:41;;;;;;;;;;;;;;;5.78;59.44;99878.91;5350815;32;34795;-75
2023/12/21 06:05:43;;;;;;;;;;;;;;;5.50;59.95;99871.00;5333814;32;35011;-75
2023/12/21 06:08:45;;;;;;;;;;;;;;;5.36;60.94;99871.37;5347329;32;34706;-72
2023/12/21 06:11:47;;;;;;;;;;;;;;;5.27;61.38;99874.19;5336777;32;35182;-74
2023/12/21 06:14:52;;;;;;;;;;;;;;;5.51;60.73;99865.75;5345088;32;34982;-69
2023/12/21 06:17:54;;;;;;;;;;;;;;;5.64;60.65;99861.06;5350393;32;35309;-69
2023/12/21 06:20:56;;;;;;;;;;;;;;;5.65;60.62;99860.16;5332990;32;34916;-68
2023/12/21 06:23:57;;;;;;;;;;;;;;;5.93;59.47;99861.16;5350081;32;35299;-69
2023/12/21 06:27:00;;;;;;;;;;;;;;;5.42;61.00;99853.81;5345777;32;34272;-68
2023/12/21 06:30:02;;;;;;;;;;;;;;;5.59;60.88;99842.06;5331680;32;34637;-74
2023/12/21 06:33:04;;;;;;;;;;;;;;;5.05;62.64;99846.09;5346787;32;35019;-69
2023/12/21 06:36:06;;;;;;;;;;;;;;;5.58;61.18;99841.22;5346694;32;34802;-75
2023/12/21 06:39:08;;;;;;;;;;;;;;;5.22;62.30;99848.28;5366896;32;35102;-74
2023/12/21 06:42:10;;;;;;;;;;;;;;;4.86;63.29;99845.69;5362108;32;34657;-68
2023/12/21 06:45:12;;;;;;;;;;;;;;;4.53;64.93;99842.16;5367897;32;34876;-68
2023/12/21 06:48:14;;;;;;;;;;;;;;;4.66;64.90;99841.84;5374037;32;34159;-67
2023/12/21 06:51:16;;;;;;;;;;;;;;;4.70;64.91;99838.28;5455854;32;35574;-73
2023/12/21 06:54:18;;;;;;;;;;;;;;;5.14;64.16;99845.00;5464833;32;35429;-73
2023/12/21 06:57:21;;;;;;;;;;;;;;;5.29;63.15;99835.94;5458850;32;35114;-76
2023/12/21 07:00:23;;;;;;;;;;;;;;;5.22;63.57;99844.81;5449233;32;34549;-79
2023/12/21 07:03:26;;;;;;;;;;;;;;;5.09;63.84;99831.25;5464398;32;35284;-68
2023/12/21 07:06:28;;;;;;;;;;;;;;;4.81;65.89;99834.53;5453755;32;35134;-75
2023/12/21 07:09:30;;;;;;;;;;;;;;;5.42;63.91;99843.41;5464072;32;34630;-67
2023/12/21 07:12:32;;;;;;;;;;;;;;;5.28;64.51;99848.13;5464142;32;34964;-68
2023/12/21 07:15:34;;;;;;;;;;;;;;;5.52;62.78;99838.78;5464335;32;35477;-76
2023/12/21 07:18:36;;;;;;;;;;;;;;;5.44;63.35;99845.94;5458969;32;35716;-67
2023/12/21 07:21:38;;;;;;;;;;;;;;;5.07;64.72;99827.81;5451509;32;34112;-76
2023/12/21 07:24:40;;;;;;;;;;;;;;;5.24;64.21;99814.38;5460683;32;34590;-76
2023/12/21 07:27:42;;;;;;;;;;;;;;;5.28;64.09;99823.78;5463683;32;34365;-70
2023/12/21 07:30:44;;;;;;;;;;;;;;;4.86;66.03;99810.97;5450290;32;34807;-76
2023/12/21 07:33:46;;;;;;;;;;;;;;;4.63;66.76;99814.12;5449665;32;34044;-68
2023/12/21 07:36:49;;;;;;;;;;;;;;;4.57;67.17;99830.78;5452401;32;35707;-75
2023/12/21 07:39:50;;;;;;;;;;;;;;;4.63;67.34;99834.97;5465249;32;34885;-82
2023/12/21 07:42:53;;;;;;;;;;;;;;;4.58;68.11;99835.09;5437620;32;34688;-69
2023/12/21 07:45:55;;;;;;;;;;;;;;;5.08;67.02;99832.13;5443998;32;34667;-67
2023/12/21 07:49:03;;;;;;;;;;;;;;;5.29;65.99;99833.34;5464311;32;34435;-73
2023/12/21 07:52:05;;;;;;;;;;;;;;;5.11;66.95;99835.53;5460068;32;35825;-68
2023/12/21 07:55:09;;;;;;;;;;;;;;;5.43;65.22;99821.66;5451111;32;34959;-68
2023/12/21 07:58:11;;;;;;;;;;;;;;;5.36;65.39;99820.09;5455724;32;34811;-68
2023/12/21 08:01:13;;;;;;;;;;;;;;;5.25;66.42;99816.06;5462155;32;34436;-77
2023/12/21 08:04:18;;;;;;;;;;;;;;;5.34;66.56;99814.06;5467795;32;34836;-75
2023/12/21 08:07:20;;;;;;;;;;;;;;;5.70;65.25;99804.38;5464532;32;34444;-66
2023/12/21 08:10:23;;;;;;;;;;;;;;;5.35;67.03;99807.97;5469239;32;35138;-73
2023/12/21 08:13:26;;;;;;;;;;;;;;;6.24;63.73;99802.81;5461242;32;35623;-79
2023/12/21 08:16:28;;;;;;;;;;;;;;;6.32;63.31;99807.81;5450980;32;32863;-67
2023/12/21 08:19:31;;;;;;;;;;;;;;;6.09;64.67;99798.06;5452737;32;34336;-78
2023/12/21 08:22:34;;;;;;;;;;;;;;;5.24;66.17;99794.38;5464030;32;34779;-67
2023/12/21 08:25:36;;;;;;;;;;;;;;;6.36;63.54;99802.44;5467106;32;35177;-77
2023/12/21 08:28:38;;;;;;;;;;;;;;;6.45;62.94;99786.50;5464715;32;35694;-73
2023/12/21 08:31:40;;;;;;;;;;;;;;;6.27;63.67;99794.06;5449863;32;34068;-74
2023/12/21 08:34:42;;;;;;;;;;;;;;;6.15;64.61;99796.13;5466033;32;35117;-69
2023/12/21 08:37:45;;;;;;;;;;;;;;;6.01;65.68;99797.47;5462732;32;34086;-79
2023/12/21 08:40:47;;;;;;;;;;;;;;;6.27;64.87;99802.75;5441028;32;34580;-83
2023/12/21 08:43:50;;;;;;;;;;;;;;;6.70;63.78;99802.25;5443096;32;34737;-69
2023/12/21 08:46:53;;;;;;;;;;;;;;;6.16;64.30;99810.03;5464086;32;34955;-75
2023/12/21 08:50:00;;;;;;;;;;;;;;;6.39;63.82;99811.94;5457966;32;35632;-75
2023/12/21 08:53:02;;;;;;;;;;;;;;;7.22;61.39;99792.66;5450559;32;34481;-78
2023/12/21 08:56:05;;;;;;;;;;;;;;;7.41;59.91;99790.25;5450777;32;35170;-72
2023/12/21 08:59:07;;;;;;;;;;;;;;;7.19;60.96;99786.66;5465757;32;34252;-76
2023/12/21 09:02:09;;;;;;;;;;;;;;;7.33;60.72;99773.97;5465234;32;32828;-72
2023/12/21 09:05:13;;;;;;;;;;;;;;;7.56;59.43;99781.84;5463999;32;34643;-71
2023/12/21 09:08:16;;;;;;;;;;;;;;;7.13;61.23;99779.03;5451288;32;35893;-76
2023/12/21 09:11:20;;;;;;;;;;;;;;;7.70;59.43;99760.41;5463158;32;34379;-69
2023/12/21 09:14:24;;;;;;;;;;;;;;;7.44;60.46;99765.75;5452924;32;34964;-77
2023/12/21 09:17:26;;;;;;;;;;;;;;;7.88;59.59;99761.47;5453800;32;34159;-74
2023/12/21 09:20:31;;;;;;;;;;;;;;;7.72;59.66;99760.34;5465662;32;34663;-72
2023/12/21 09:23:33;;;;;;;;;;;;;;;7.96;58.68;99748.94;5473708;32;34772;-79
2023/12/21 09:26:36;;;;;;;;;;;;;;;7.20;61.22;99751.78;5463684;32;35934;-82
2023/12/21 09:29:38;;;;;;;;;;;;;;;7.99;58.72;99740.16;5452282;32;34102;-73
2023/12/21 09:32:41;;;;;;;;;;;;;;;8.06;58.48;99739.00;5463215;32;34202;-78
2023/12/21 09:35:43;;;;;;;;;;;;;;;8.04;58.53;99730.34;5451449;32;35260;-76
2023/12/21 09:38:49;;;;;;;;;;;;;;;7.98;59.28;99723.56;5468396;32;35460;-77
2023/12/21 09:41:51;;;;;;;;;;;;;;;7.86;60.32;99716.22;5450358;32;34229;-73
2023/12/21 09:45:05;;;;;;;;;;;;;;;8.30;58.39;99711.81;5468325;32;34495;-77
2023/12/21 09:48:10;;;;;;;;;;;;;;;8.53;57.70;99710.94;5464493;32;34795;-69
2023/12/21 09:51:13;;;;;;;;;;;;;;;8.38;57.18;99695.84;5466697;32;36041;-71
2023/12/21 09:54:16;;;;;;;;;;;;;;;9.20;55.42;99681.81;5443033;32;36445;-80
2023/12/21 09:57:18;;;;;;;;;;;;;;;7.85;59.02;99681.31;5454974;32;35152;-70
2023/12/21 10:00:20;;;;;;;;;;;;;;;8.43;58.14;99678.16;5471731;32;34265;-72
2023/12/21 10:03:22;;;;;;;;;;;;;;;8.82;56.61;99677.41;5467383;32;35065;-69
2023/12/21 10:06:24;;;;;;;;;;;;;;;9.21;55.19;99677.44;5471361;32;35190;-69
2023/12/21 10:09:31;;;;;;;;;;;;;;;8.90;56.42;99670.06;5450454;32;34569;-77
2023/12/21 10:12:33;;;;;;;;;;;;;;;8.36;57.54;99661.00;5453936;32;34786;-73
2023/12/21 10:15:35;;;;;;;;;;;;;;;8.32;57.94;99656.81;5457224;32;34748;-75
2023/12/21 10:18:37;;;;;;;;;;;;;;;8.65;57.80;99649.31;5467240;32;34928;-78
2023/12/21 10:21:46;;;;;;;;;;;;;;;9.11;56.55;99636.81;5456463;32;34601;-77
2023/12/21 10:24:50;;;;;;;;;;;;;;;9.11;56.17;99618.47;5453426;32;34932;-74
2023/12/21 10:27:55;;;;;;;;;;;;;;;8.21;58.74;99617.12;5469262;32;34552;-72
2023/12/21 10:31:03;;;;;;;;;;;;;;;8.68;57.48;99615.13;5467600;32;35267;-80
2023/12/21 10:34:06;;;;;;;;;;;;;;;8.23;59.66;99610.88;5451518;32;34239;-73
2023/12/21 10:37:09;;;;;;;;;;;;;;;8.90;56.92;99608.03;5452896;32;34628;-71
2023/12/21 10:40:14;;;;;;;;;;;;;;;8.74;58.04;99601.75;5463500;32;35499;-75
2023/12/21 10:43:16;;;;;;;;;;;;;;;8.95;57.84;99589.47;5467911;32;34191;-76
2023/12/21 10:46:18;;;;;;;;;;;;;;;9.12;57.43;99559.87;5454004;32;35401;-78
2023/12/21 10:49:20;;;;;;;;;;;;;;;9.37;56.79;99544.69;5452547;32;34143;-79
2023/12/21 10:52:23;;;;;;;;;;;;;;;9.58;54.84;99526.22;5447967;32;34372;-74
2023/12/21 10:55:25;;;;;;;;;;;;;;;9.49;55.28;99525.75;5449533;32;35037;-73
2023/12/21 10:58:27;;;;;;;;;;;;;;;9.42;55.03;99513.00;5452327;32;34423;-75
2023/12/21 11:01:29;;;;;;;;;;;;;;;9.40;55.31;99499.09;5465148;32;35005;-78
2023/12/21 11:04:32;;;;;;;;;;;;;;;9.73;54.52;99468.59;5454974;32;34319;-71
2023/12/21 11:07:34;;;;;;;;;;;;;;;9.45;54.38;99461.22;5451351;32;34924;-79
2023/12/21 11:10:36;;;;;;;;;;;;;;;9.64;54.58;99469.03;5454566;32;34624;-77
2023/12/21 11:13:45;;;;;;;;;;;;;;;9.33;55.93;99458.34;5452549;32;35229;-73
2023/12/21 11:16:50;;;;;;;;;;;;;;;9.60;55.29;99445.69;5465849;32;34804;-72
2023/12/21 11:19:52;;;;;;;;;;;;;;;9.93;55.39;99432.62;5454578;32;35724;-71
2023/12/21 11:22:54;;;;;;;;;;;;;;;10.70;51.59;99438.16;5446435;32;36372;-72
2023/12/21 11:25:57;;;;;;;;;;;;;;;10.71;51.91;99420.63;5440005;32;34402;-70
2023/12/21 11:29:05;;;;;;;;;;;;;;;10.98;50.73;99410.34;5463163;32;35451;-70
2023/12/21 11:32:07;;;;;;;;;;;;;;;10.95;51.07;99402.62;5450587;32;34697;-72
2023/12/21 11:35:19;;;;;;;;;;;;;;;11.03;50.38;99400.44;5467212;32;34719;-74
2023/12/21 11:38:24;;;;;;;;;;;;;;;10.75;51.05;99407.19;5448463;32;34387;-74
2023/12/21 11:41:27;;;;;;;;;;;;;;;10.57;51.33;99389.84;5467934;32;34644;-73
2023/12/21 11:44:36;;;;;;;;;;;;;;;10.30;52.25;99390.41;5463083;32;35584;-71
2023/12/21 11:47:38;;;;;;;;;;;;;;;10.24;52.56;99377.59;5466947;32;34174;-71
2023/12/21 11:50:40;;;;;;;;;;;;;;;9.81;53.46;99365.88;5444703;32;35970;-74
2023/12/21 11:53:43;;;;;;;;;;;;;;;9.70;54.11;99366.41;5448395;32;35096;-71
2023/12/21 11:56:52;;;;;;;;;;;;;;;9.74;53.29;99364.50;5442025;32;36237;-74
2023/12/21 12:00:13;;;;;;;;;;;;;;;9.63;53.65;99353.69;5464694;32;35302;-71
2023/12/21 12:03:16;;;;;;;;;;;;;;;9.58;53.72;99337.34;5452717;32;35050;-71
2023/12/21 12:06:18;;;;;;;;;;;;;;;9.53;54.56;99342.81;5466697;32;34403;-71
2023/12/21 12:09:20;;;;;;;;;;;;;;;10.12;52.88;99338.84;5450629;32;34969;-72
2023/12/21 12:12:22;;;;;;;;;;;;;;;9.59;54.62;99316.25;5467283;32;34381;-71
2023/12/21 12:15:24;;;;;;;;;;;;;;;9.41;54.70;99319.88;5449410;32;35462;-74
2023/12/21 12:18:26;;;;;;;;;;;;;;;9.30;55.45;99304.66;5468252;32;35827;-70
2023/12/21 12:21:29;;;;;;;;;;;;;;;9.35;55.14;99278.22;5464746;32;34496;-72
2023/12/21 12:24:31;;;;;;;;;;;;;;;9.25;55.77;99277.81;5452325;32;34377;-71
2023/12/21 12:27:33;;;;;;;;;;;;;;;9.40;55.35;99284.03;5464548;32;34294;-73
2023/12/21 12:30:36;;;;;;;;;;;;;;;8.97;56.51;99269.69;5464875;32;34909;-71
2023/12/21 12:33:38;;;;;;;;;;;;;;;9.26;55.94;99262.94;5467977;32;35877;-71
2023/12/21 12:36:40;;;;;;;;;;;;;;;8.79;56.84;99266.19;5463966;32;34809;-73
2023/12/21 12:39:45;;;;;;;;;;;;;;;8.93;57.20;99261.09;5440321;32;33433;-72
2023/12/21 12:42:47;;;;;;;;;;;;;;;8.87;57.69;99261.41;5447764;32;34763;-70
2023/12/21 12:45:50;;;;;;;;;;;;;;;8.76;58.23;99243.62;5468221;32;35030;-70
2023/12/21 12:48:52;;;;;;;;;;;;;;;8.70;58.21;99238.69;5449082;32;36133;-73
2023/12/21 12:51:56;;;;;;;;;;;;;;;8.30;59.93;99224.88;5447063;32;34922;-75
2023/12/21 12:55:01;;;;;;;;;;;;;;;8.49;59.27;99224.84;5453327;32;34719;-73
2023/12/21 12:58:04;;;;;;;;;;;;;;;8.32;60.62;99206.50;5449607;32;34772;-70
2023/12/21 13:01:06;;;;;;;;;;;;;;;8.41;60.89;99192.97;5451667;32;34190;-71
2023/12/21 13:04:08;;;;;;;;;;;;;;;8.61;60.67;99191.97;5463880;32;35078;-71
2023/12/21 13:07:10;;;;;;;;;;;;;;;9.01;60.03;99166.38;5466201;32;35170;-72
2023/12/21 13:10:12;;;;;;;;;;;;;;;8.87;59.52;99177.56;5463748;32;34952;-72
2023/12/21 13:13:15;;;;;;;;;;;;;;;8.29;61.79;99162.97;5463018;32;34739;-73
2023/12/21 13:16:18;;;;;;;;;;;;;;;8.60;60.67;99146.63;5467562;32;34867;-71
2023/12/21 13:19:21;;;;;;;;;;;;;;;8.65;59.87;99147.22;5462604;32;35032;-71
2023/12/21 13:22:27;;;;;;;;;;;;;;;8.26;62.04;99138.72;5464533;32;35021;-73
2023/12/21 13:25:29;;;;;;;;;;;;;;;8.52;61.15;99130.44;5463425;32;34338;-70
2023/12/21 13:28:31;;;;;;;;;;;;;;;8.36;62.64;99119.88;5467541;32;35465;-72
2023/12/21 13:31:33;;;;;;;;;;;;;;;8.92;60.22;99102.19;5448889;32;34210;-72
2023/12/21 13:34:36;;;;;;;;;;;;;;;9.03;60.01;99088.53;5437241;32;34238;-70
2023/12/21 13:37:39;;;;;;;;;;;;;;;8.39;62.09;99082.25;5468631;32;35099;-71
2023/12/21 13:40:44;;;;;;;;;;;;;;;8.67;62.31;99079.88;5465131;32;34457;-75
2023/12/21 13:43:47;;;;;;;;;;;;;;;8.92;61.77;99083.84;5454359;32;35319;-71
2023/12/21 13:46:56;;;;;;;;;;;;;;;9.09;60.84;99068.09;5464705;32;35363;-71
2023/12/21 13:49:58;;;;;;;;;;;;;;;8.86;61.53;99063.22;5463693;32;35284;-73
2023/12/21 13:53:00;;;;;;;;;;;;;;;8.82;61.70;99038.97;5467621;32;35451;-75
2023/12/21 13:56:02;;;;;;;;;;;;;;;8.86;61.36;99034.38;5465652;32;34444;-74
2023/12/21 13:59:05;;;;;;;;;;;;;;;9.17;59.92;99023.94;5469549;32;34808;-74
2023/12/21 14:02:07;;;;;;;;;;;;;;;9.05;60.59;99008.88;5465103;32;35108;-73
2023/12/21 14:05:10;;;;;;;;;;;;;;;9.08;59.93;99005.25;5469886;32;35321;-72
2023/12/21 14:08:13;;;;;;;;;;;;;;;9.24;58.67;99013.97;5465696;32;34262;-73
2023/12/21 14:11:14;;;;;;;;;;;;;;;8.20;60.83;99018.63;5466298;32;34418;-73
2023/12/21 14:14:17;;;;;;;;;;;;;;;7.90;62.15;99021.00;5468712;32;35340;-71
2023/12/21 14:17:19;;;;;;;;;;;;;;;7.85;62.67;99016.84;5447968;32;34235;-71
2023/12/21 14:20:25;;;;;;;;;;;;;;;8.44;61.19;99020.03;5441543;32;34689;-73
2023/12/21 14:23:27;;;;;;;;;;;;;;;8.57;60.08;99010.59;5465037;32;34880;-73
2023/12/21 14:26:29;;;;;;;;;;;;;;;8.30;61.02;99009.38;5442766;32;34915;-74
2023/12/21 14:29:31;;;;;;;;;;;;;;;8.43;60.99;99015.69;5464475;32;34600;-72
2023/12/21 14:32:33;;;;;;;;;;;;;;;8.60;60.65;99018.28;5464120;32;35309;-71
2023/12/21 14:35:35;;;;;;;;;;;;;;;8.46;60.51;99022.56;5468962;32;34827;-74
2023/12/21 14:38:37;;;;;;;;;;;;;;;8.51;60.85;99013.53;5463107;32;35253;-74
2023/12/21 14:41:39;;;;;;;;;;;;;;;8.47;60.81;99017.22;5468697;32;34348;-71
2023/12/21 14:44:41;;;;;;;;;;;;;;;8.39;61.28;99001.94;5464208;32;34948;-72
2023/12/21 14:47:43;;;;;;;;;;;;;;;8.27;62.04;98993.84;5468352;32;35966;-71
2023/12/21 14:50:45;;;;;;;;;;;;;;;8.05;63.03;98975.75;5462267;32;34325;-73
2023/12/21 14:53:47;;;;;;;;;;;;;;;8.52;61.63;98990.81;5448725;32;34505;-73
2023/12/21 14:56:49;;;;;;;;;;;;;;;8.25;62.49;98993.91;5469108;32;35175;-72
2023/12/21 14:59:52;;;;;;;;;;;;;;;8.22;62.24;98987.97;5465241;32;35880;-74
2023/12/21 15:02:54;;;;;;;;;;;;;;;8.03;63.45;98978.47;5467745;32;34448;-73
2023/12/21 15:05:56;;;;;;;;;;;;;;;8.39;62.49;98974.91;5462810;32;35026;-72
2023/12/21 15:08:59;;;;;;;;;;;;;;;8.34;62.47;98959.41;5451792;32;34607;-74
2023/12/21 15:12:02;;;;;;;;;;;;;;;8.35;62.62;98955.88;5450290;32;34690;-70
2023/12/21 15:15:04;;;;;;;;;;;;;;;8.04;63.79;98948.75;5463532;32;34495;-75
2023/12/21 15:18:06;;;;;;;;;;;;;;;7.86;64.03;98954.94;5451235;32;34965;-72
2023/12/21 15:21:08;;;;;;;;;;;;;;;8.05;64.14;98953.06;5463044;32;34654;-73
2023/12/21 15:24:10;;;;;;;;;;;;;;;8.21;63.66;98952.28;5450174;32;35189;-73
2023/12/21 15:27:12;;;;;;;;;;;;;;;8.04;64.02;98940.06;5462518;32;34921;-71
2023/12/21 15:30:14;;;;;;;;;;;;;;;8.28;63.90;98937.94;5466146;32;34485;-72
2023/12/21 15:33:16;;;;;;;;;;;;;;;8.26;63.74;98929.31;5447894;32;34819;-75
2023/12/21 15:36:19;;;;;;;;;;;;;;;8.28;63.90;98923.06;5461724;32;34271;-72
2023/12/21 15:39:21;;;;;;;;;;;;;;;8.26;63.64;98919.69;5465789;32;34515;-75
2023/12/21 15:42:23;;;;;;;;;;;;;;;8.29;63.45;98918.69;5456238;32;34508;-71
2023/12/21 15:45:25;;;;;;;;;;;;;;;8.14;64.46;98915.09;5450355;32;34291;-73
2023/12/21 15:48:27;;;;;;;;;;;;;;;8.08;65.09;98902.34;5456440;32;34930;-72
2023/12/21 15:51:29;;;;;;;;;;;;;;;7.82;65.77;98885.38;5461430;32;35381;-73
2023/12/21 15:54:31;;;;;;;;;;;;;;;7.94;66.17;98892.59;5460107;32;36779;-73
2023/12/21 15:57:34;;;;;;;;;;;;;;;7.99;66.05;98874.91;5460754;32;34822;-73
2023/12/21 16:00:36;;;;;;;;;;;;;;;8.06;66.36;98871.03;5463762;32;34501;-73
2023/12/21 16:03:38;;;;;;;;;;;;;;;7.80;66.87;98864.53;5444870;32;34369;-71
2023/12/21 16:06:40;;;;;;;;;;;;;;;7.98;67.12;98857.47;5465407;32;34956;-72
2023/12/21 16:09:42;;;;;;;;;;;;;;;7.51;68.43;98829.44;5461621;32;35354;-71